sensor_id;sensor_type;location;lat;lon;timestamp;P1;durP1;ratioP1;P2;durP2;ratioP2
20002;SDS011;10162;41.600;23.806;2023-03-01T00:29:25;1.73;;;1.57;;
20002;SDS011;10162;41.600;23.806;2023-03-01T00:32:06;1.10;;;0.93;;
20002;SDS011;10162;41.600;23.806;2023-03-01T00:34:35;1.30;;;0.90;;
20002;SDS011;10162;41.600;23.806;2023-03-01T00:37:01;7.67;;;2.50;;
20002;SDS011;10162;41.600;23.806;2023-03-01T00:39:31;3.43;;;2.50;;
20002;SDS011;10162;41.600;23.806;2023-03-01T00:41:59;2.80;;;1.50;;
20002;SDS011;10162;41.600;23.806;2023-03-01T00:44:26;1.83;;;1.30;;
20002;SDS011;10162;41.600;23.806;2023-03-01T00:46:53;2.93;;;1.57;;
20002;SDS011;10162;41.600;23.806;2023-03-01T00:49:22;2.43;;;1.60;;
20002;SDS011;10162;41.600;23.806;2023-03-01T00:53:05;4.37;;;2.63;;
20002;SDS011;10162;41.600;23.806;2023-03-01T00:55:32;2.17;;;1.47;;
20002;SDS011;10162;41.600;23.806;2023-03-01T00:57:58;1.90;;;1.13;;
20002;SDS011;10162;41.600;23.806;2023-03-01T01:00:24;1.70;;;1.30;;
20002;SDS011;10162;41.600;23.806;2023-03-01T01:06:14;2.17;;;1.03;;
20002;SDS011;10162;41.600;23.806;2023-03-01T01:12:30;0.73;;;0.73;;
20002;SDS011;10162;41.600;23.806;2023-03-01T01:14:57;1.57;;;1.20;;
20002;SDS011;10162;41.600;23.806;2023-03-01T01:17:23;1.60;;;0.90;;
20002;SDS011;10162;41.600;23.806;2023-03-01T01:19:49;1.10;;;0.70;;
20002;SDS011;10162;41.600;23.806;2023-03-01T01:38:44;1.83;;;1.23;;
20002;SDS011;10162;41.600;23.806;2023-03-01T01:41:13;1.27;;;1.10;;
20002;SDS011;10162;41.600;23.806;2023-03-01T01:43:44;1.37;;;1.00;;
20002;SDS011;10162;41.600;23.806;2023-03-01T01:54:39;1.20;;;1.00;;
20002;SDS011;10162;41.600;23.806;2023-03-01T01:57:17;0.87;;;0.80;;
20002;SDS011;10162;41.600;23.806;2023-03-01T01:59:52;1.37;;;1.20;;
20002;SDS011;10162;41.600;23.806;2023-03-01T02:02:24;1.80;;;1.07;;
20002;SDS011;10162;41.600;23.806;2023-03-01T02:04:52;1.00;;;0.70;;
20002;SDS011;10162;41.600;23.806;2023-03-01T02:07:27;1.70;;;0.57;;
20002;SDS011;10162;41.600;23.806;2023-03-01T02:09:53;0.40;;;0.40;;
20002;SDS011;10162;41.600;23.806;2023-03-01T02:12:29;1.40;;;0.27;;
20002;SDS011;10162;41.600;23.806;2023-03-01T02:14:56;0.60;;;0.40;;
20002;SDS011;10162;41.600;23.806;2023-03-01T02:24:03;0.37;;;0.37;;
20002;SDS011;10162;41.600;23.806;2023-03-01T02:44:14;0.40;;;0.40;;
20002;SDS011;10162;41.600;23.806;2023-03-01T02:46:42;0.37;;;0.37;;
20002;SDS011;10162;41.600;23.806;2023-03-01T02:49:19;0.40;;;0.40;;
20002;SDS011;10162;41.600;23.806;2023-03-01T02:55:02;0.60;;;0.60;;
20002;SDS011;10162;41.600;23.806;2023-03-01T02:57:35;0.80;;;0.47;;
20002;SDS011;10162;41.600;23.806;2023-03-01T03:00:09;2.40;;;0.60;;
20002;SDS011;10162;41.600;23.806;2023-03-01T03:03:00;1.00;;;0.70;;
20002;SDS011;10162;41.600;23.806;2023-03-01T03:05:33;1.53;;;1.00;;
20002;SDS011;10162;41.600;23.806;2023-03-01T03:08:01;1.37;;;0.80;;
20002;SDS011;10162;41.600;23.806;2023-03-01T03:10:32;0.77;;;0.77;;
20002;SDS011;10162;41.600;23.806;2023-03-01T03:20:47;0.87;;;0.50;;
20002;SDS011;10162;41.600;23.806;2023-03-01T03:25:56;2.87;;;1.90;;
20002;SDS011;10162;41.600;23.806;2023-03-01T03:28:22;3.13;;;1.70;;
20002;SDS011;10162;41.600;23.806;2023-03-01T03:31:06;2.47;;;1.80;;
20002;SDS011;10162;41.600;23.806;2023-03-01T03:33:32;1.30;;;1.20;;
20002;SDS011;10162;41.600;23.806;2023-03-01T03:36:00;1.57;;;1.37;;
20002;SDS011;10162;41.600;23.806;2023-03-01T03:38:26;1.90;;;1.33;;
20002;SDS011;10162;41.600;23.806;2023-03-01T03:41:00;1.37;;;0.80;;
20002;SDS011;10162;41.600;23.806;2023-03-01T03:44:55;0.50;;;0.50;;
20002;SDS011;10162;41.600;23.806;2023-03-01T03:47:33;5.63;;;3.30;;
20002;SDS011;10162;41.600;23.806;2023-03-01T03:49:59;3.17;;;1.83;;
20002;SDS011;10162;41.600;23.806;2023-03-01T03:56:03;1.70;;;1.60;;
20002;SDS011;10162;41.600;23.806;2023-03-01T03:58:29;3.93;;;3.37;;
20002;SDS011;10162;41.600;23.806;2023-03-01T05:10:30;3.70;;;3.13;;
20002;SDS011;10162;41.600;23.806;2023-03-01T05:37:33;13.60;;;8.80;;
20002;SDS011;10162;41.600;23.806;2023-03-01T05:45:36;15.23;;;10.83;;
20002;SDS011;10162;41.600;23.806;2023-03-01T05:48:10;12.73;;;10.33;;
20002;SDS011;10162;41.600;23.806;2023-03-01T06:23:46;19.83;;;12.30;;
20002;SDS011;10162;41.600;23.806;2023-03-01T06:26:18;17.17;;;12.47;;
20002;SDS011;10162;41.600;23.806;2023-03-01T06:28:45;14.30;;;10.57;;
20002;SDS011;10162;41.600;23.806;2023-03-01T06:31:12;16.77;;;11.20;;
20002;SDS011;10162;41.600;23.806;2023-03-01T06:33:38;18.13;;;10.40;;
20002;SDS011;10162;41.600;23.806;2023-03-01T06:36:04;14.07;;;10.60;;
20002;SDS011;10162;41.600;23.806;2023-03-01T06:38:30;12.40;;;10.90;;
20002;SDS011;10162;41.600;23.806;2023-03-01T06:40:58;14.27;;;10.80;;
20002;SDS011;10162;41.600;23.806;2023-03-01T06:43:24;15.17;;;10.80;;
20002;SDS011;10162;41.600;23.806;2023-03-01T06:45:50;15.47;;;11.37;;
20002;SDS011;10162;41.600;23.806;2023-03-01T06:48:16;15.57;;;10.20;;
20002;SDS011;10162;41.600;23.806;2023-03-01T06:50:42;12.40;;;9.30;;
20002;SDS011;10162;41.600;23.806;2023-03-01T06:53:08;14.27;;;10.97;;
20002;SDS011;10162;41.600;23.806;2023-03-01T06:55:35;17.37;;;12.20;;
20002;SDS011;10162;41.600;23.806;2023-03-01T06:58:02;15.93;;;11.03;;
20002;SDS011;10162;41.600;23.806;2023-03-01T07:00:28;17.23;;;11.63;;
20002;SDS011;10162;41.600;23.806;2023-03-01T07:03:00;21.10;;;13.40;;
20002;SDS011;10162;41.600;23.806;2023-03-01T07:05:27;23.27;;;12.93;;
20002;SDS011;10162;41.600;23.806;2023-03-01T07:07:54;15.93;;;11.83;;
20002;SDS011;10162;41.600;23.806;2023-03-01T07:10:20;16.10;;;11.13;;
20002;SDS011;10162;41.600;23.806;2023-03-01T07:12:46;18.70;;;13.07;;
20002;SDS011;10162;41.600;23.806;2023-03-01T07:15:12;17.83;;;13.67;;
20002;SDS011;10162;41.600;23.806;2023-03-01T07:17:40;18.97;;;12.83;;
20002;SDS011;10162;41.600;23.806;2023-03-01T07:20:06;13.73;;;10.73;;
20002;SDS011;10162;41.600;23.806;2023-03-01T07:22:32;14.37;;;10.50;;
20002;SDS011;10162;41.600;23.806;2023-03-01T07:24:58;17.10;;;10.20;;
20002;SDS011;10162;41.600;23.806;2023-03-01T07:27:24;14.63;;;9.33;;
20002;SDS011;10162;41.600;23.806;2023-03-01T07:29:50;11.27;;;7.50;;
20002;SDS011;10162;41.600;23.806;2023-03-01T07:34:52;11.53;;;8.23;;
20002;SDS011;10162;41.600;23.806;2023-03-01T07:37:18;12.63;;;8.77;;
20002;SDS011;10162;41.600;23.806;2023-03-01T07:39:47;20.13;;;12.00;;
20002;SDS011;10162;41.600;23.806;2023-03-01T07:42:20;17.53;;;11.83;;
20002;SDS011;10162;41.600;23.806;2023-03-01T07:44:50;18.27;;;12.63;;
20002;SDS011;10162;41.600;23.806;2023-03-01T07:47:16;17.43;;;13.13;;
20002;SDS011;10162;41.600;23.806;2023-03-01T07:49:43;17.60;;;12.87;;
20002;SDS011;10162;41.600;23.806;2023-03-01T07:52:23;17.40;;;12.43;;
20002;SDS011;10162;41.600;23.806;2023-03-01T07:54:49;19.27;;;12.53;;
20002;SDS011;10162;41.600;23.806;2023-03-01T07:57:15;17.63;;;11.83;;
20002;SDS011;10162;41.600;23.806;2023-03-01T07:59:41;24.43;;;16.67;;
20002;SDS011;10162;41.600;23.806;2023-03-01T08:02:18;26.97;;;15.93;;
20002;SDS011;10162;41.600;23.806;2023-03-01T08:04:44;25.30;;;15.57;;
20002;SDS011;10162;41.600;23.806;2023-03-01T08:07:47;23.63;;;16.80;;
20002;SDS011;10162;41.600;23.806;2023-03-01T08:10:18;24.00;;;16.50;;
20002;SDS011;10162;41.600;23.806;2023-03-01T08:15:14;24.97;;;17.17;;
20002;SDS011;10162;41.600;23.806;2023-03-01T08:17:40;27.40;;;19.43;;
20002;SDS011;10162;41.600;23.806;2023-03-01T08:20:06;33.67;;;21.53;;
20002;SDS011;10162;41.600;23.806;2023-03-01T08:25:21;38.60;;;26.07;;
20002;SDS011;10162;41.600;23.806;2023-03-01T08:27:50;35.27;;;24.20;;
20002;SDS011;10162;41.600;23.806;2023-03-01T08:30:20;33.13;;;24.13;;
20002;SDS011;10162;41.600;23.806;2023-03-01T08:35:17;38.00;;;25.83;;
20002;SDS011;10162;41.600;23.806;2023-03-01T08:37:43;36.87;;;28.07;;
20002;SDS011;10162;41.600;23.806;2023-03-01T08:48:03;30.30;;;19.60;;
20002;SDS011;10162;41.600;23.806;2023-03-01T09:46:51;4.70;;;4.10;;
20002;SDS011;10162;41.600;23.806;2023-03-01T10:59:19;4.80;;;4.03;;
20002;SDS011;10162;41.600;23.806;2023-03-01T11:10:10;7.17;;;4.80;;
20002;SDS011;10162;41.600;23.806;2023-03-01T11:15:19;5.83;;;4.57;;
20002;SDS011;10162;41.600;23.806;2023-03-01T11:17:51;6.13;;;4.30;;
20002;SDS011;10162;41.600;23.806;2023-03-01T11:26:22;7.53;;;5.00;;
20002;SDS011;10162;41.600;23.806;2023-03-01T11:28:56;6.20;;;5.37;;
20002;SDS011;10162;41.600;23.806;2023-03-01T11:35:30;8.30;;;6.10;;
20002;SDS011;10162;41.600;23.806;2023-03-01T11:40:47;10.63;;;6.87;;
20002;SDS011;10162;41.600;23.806;2023-03-01T11:47:57;10.07;;;6.60;;
20002;SDS011;10162;41.600;23.806;2023-03-01T11:50:44;17.70;;;13.43;;
20002;SDS011;10162;41.600;23.806;2023-03-01T12:37:47;9.87;;;6.63;;
20002;SDS011;10162;41.600;23.806;2023-03-01T12:40:33;10.50;;;7.80;;
20002;SDS011;10162;41.600;23.806;2023-03-01T12:45:57;12.03;;;6.40;;
20002;SDS011;10162;41.600;23.806;2023-03-01T12:51:43;10.87;;;8.07;;
20002;SDS011;10162;41.600;23.806;2023-03-01T12:54:26;12.67;;;8.60;;
20002;SDS011;10162;41.600;23.806;2023-03-01T12:56:55;11.27;;;7.73;;
20002;SDS011;10162;41.600;23.806;2023-03-01T13:02:24;10.93;;;8.27;;
20002;SDS011;10162;41.600;23.806;2023-03-01T13:05:00;10.30;;;7.40;;
20002;SDS011;10162;41.600;23.806;2023-03-01T13:07:44;11.27;;;8.27;;
20002;SDS011;10162;41.600;23.806;2023-03-01T13:10:23;10.80;;;7.40;;
20002;SDS011;10162;41.600;23.806;2023-03-01T13:12:53;11.77;;;7.93;;
20002;SDS011;10162;41.600;23.806;2023-03-01T13:15:30;13.57;;;8.33;;
20002;SDS011;10162;41.600;23.806;2023-03-01T13:17:59;12.90;;;7.90;;
20002;SDS011;10162;41.600;23.806;2023-03-01T13:23:08;11.53;;;7.13;;
20002;SDS011;10162;41.600;23.806;2023-03-01T13:28:40;15.30;;;8.80;;
20002;SDS011;10162;41.600;23.806;2023-03-01T13:31:09;12.03;;;7.63;;
20002;SDS011;10162;41.600;23.806;2023-03-01T13:33:51;12.83;;;6.73;;
20002;SDS011;10162;41.600;23.806;2023-03-01T13:38:57;13.43;;;7.53;;
20002;SDS011;10162;41.600;23.806;2023-03-01T13:46:52;11.90;;;7.73;;
20002;SDS011;10162;41.600;23.806;2023-03-01T13:49:21;11.83;;;8.27;;
20002;SDS011;10162;41.600;23.806;2023-03-01T13:51:54;10.63;;;7.43;;
20002;SDS011;10162;41.600;23.806;2023-03-01T13:54:28;10.10;;;7.93;;
20002;SDS011;10162;41.600;23.806;2023-03-01T13:57:00;12.73;;;7.10;;
20002;SDS011;10162;41.600;23.806;2023-03-01T13:59:29;13.43;;;7.37;;
20002;SDS011;10162;41.600;23.806;2023-03-01T14:01:56;11.23;;;6.87;;
20002;SDS011;10162;41.600;23.806;2023-03-01T14:04:28;8.83;;;5.93;;
20002;SDS011;10162;41.600;23.806;2023-03-01T14:07:17;13.40;;;8.07;;
20002;SDS011;10162;41.600;23.806;2023-03-01T14:09:55;13.90;;;8.97;;
20002;SDS011;10162;41.600;23.806;2023-03-01T14:12:39;11.30;;;7.77;;
20002;SDS011;10162;41.600;23.806;2023-03-01T14:15:22;13.23;;;9.10;;
20002;SDS011;10162;41.600;23.806;2023-03-01T14:20:40;14.17;;;7.40;;
20002;SDS011;10162;41.600;23.806;2023-03-01T14:26:14;12.40;;;9.37;;
20002;SDS011;10162;41.600;23.806;2023-03-01T14:31:36;14.30;;;10.80;;
20002;SDS011;10162;41.600;23.806;2023-03-01T14:34:16;14.77;;;9.80;;
20002;SDS011;10162;41.600;23.806;2023-03-01T14:36:46;12.83;;;9.20;;
20002;SDS011;10162;41.600;23.806;2023-03-01T14:39:20;14.33;;;9.50;;
20002;SDS011;10162;41.600;23.806;2023-03-01T14:41:50;12.30;;;9.10;;
20002;SDS011;10162;41.600;23.806;2023-03-01T14:44:19;12.40;;;9.17;;
20002;SDS011;10162;41.600;23.806;2023-03-01T14:46:53;11.13;;;8.93;;
20002;SDS011;10162;41.600;23.806;2023-03-01T14:49:22;12.03;;;9.00;;
20002;SDS011;10162;41.600;23.806;2023-03-01T14:51:55;15.43;;;9.53;;
20002;SDS011;10162;41.600;23.806;2023-03-01T14:54:27;12.73;;;9.30;;
20002;SDS011;10162;41.600;23.806;2023-03-01T14:57:19;12.67;;;9.37;;
20002;SDS011;10162;41.600;23.806;2023-03-01T14:59:50;16.03;;;9.33;;
20002;SDS011;10162;41.600;23.806;2023-03-01T15:02:21;12.83;;;8.87;;
20002;SDS011;10162;41.600;23.806;2023-03-01T15:04:50;13.57;;;8.93;;
20002;SDS011;10162;41.600;23.806;2023-03-01T15:07:20;11.83;;;9.20;;
20002;SDS011;10162;41.600;23.806;2023-03-01T15:09:46;12.63;;;8.10;;
20002;SDS011;10162;41.600;23.806;2023-03-01T15:12:35;12.20;;;7.93;;
20002;SDS011;10162;41.600;23.806;2023-03-01T15:15:29;13.83;;;9.00;;
20002;SDS011;10162;41.600;23.806;2023-03-01T15:18:01;11.90;;;8.40;;
20002;SDS011;10162;41.600;23.806;2023-03-01T15:23:26;15.60;;;7.77;;
20002;SDS011;10162;41.600;23.806;2023-03-01T15:25:55;14.07;;;8.67;;
20002;SDS011;10162;41.600;23.806;2023-03-01T15:28:25;15.93;;;9.03;;
20002;SDS011;10162;41.600;23.806;2023-03-01T15:33:31;9.50;;;6.20;;
20002;SDS011;10162;41.600;23.806;2023-03-01T15:36:03;10.40;;;6.47;;
20002;SDS011;10162;41.600;23.806;2023-03-01T15:41:57;11.27;;;6.70;;
20002;SDS011;10162;41.600;23.806;2023-03-01T15:46:54;18.50;;;7.83;;
20002;SDS011;10162;41.600;23.806;2023-03-01T15:49:27;15.20;;;8.97;;
20002;SDS011;10162;41.600;23.806;2023-03-01T15:51:56;17.40;;;12.00;;
20002;SDS011;10162;41.600;23.806;2023-03-01T15:54:24;14.27;;;9.43;;
20002;SDS011;10162;41.600;23.806;2023-03-01T15:56:52;14.10;;;10.30;;
20002;SDS011;10162;41.600;23.806;2023-03-01T15:59:28;36.43;;;29.50;;
20002;SDS011;10162;41.600;23.806;2023-03-01T16:01:54;13.27;;;9.60;;
20002;SDS011;10162;41.600;23.806;2023-03-01T16:04:19;14.87;;;9.50;;
20002;SDS011;10162;41.600;23.806;2023-03-01T16:06:49;17.13;;;11.77;;
20002;SDS011;10162;41.600;23.806;2023-03-01T16:11:52;47.60;;;28.83;;
20002;SDS011;10162;41.600;23.806;2023-03-01T16:14:19;51.67;;;34.90;;
20002;SDS011;10162;41.600;23.806;2023-03-01T16:16:47;62.27;;;39.40;;
20002;SDS011;10162;41.600;23.806;2023-03-01T16:19:14;65.27;;;43.13;;
20002;SDS011;10162;41.600;23.806;2023-03-01T16:21:40;64.30;;;43.27;;
20002;SDS011;10162;41.600;23.806;2023-03-01T16:24:49;75.07;;;48.27;;
20002;SDS011;10162;41.600;23.806;2023-03-01T16:27:15;34.37;;;22.53;;
20002;SDS011;10162;41.600;23.806;2023-03-01T16:29:47;23.47;;;16.07;;
20002;SDS011;10162;41.600;23.806;2023-03-01T16:32:13;54.67;;;30.67;;
20002;SDS011;10162;41.600;23.806;2023-03-01T16:34:39;65.00;;;43.83;;
20002;SDS011;10162;41.600;23.806;2023-03-01T16:37:06;43.30;;;29.43;;
20002;SDS011;10162;41.600;23.806;2023-03-01T16:39:32;27.77;;;21.33;;
20002;SDS011;10162;41.600;23.806;2023-03-01T16:41:59;22.77;;;16.73;;
20002;SDS011;10162;41.600;23.806;2023-03-01T16:44:26;26.70;;;16.23;;
20002;SDS011;10162;41.600;23.806;2023-03-01T16:46:52;21.33;;;13.83;;
20002;SDS011;10162;41.600;23.806;2023-03-01T16:49:19;13.60;;;8.90;;
20002;SDS011;10162;41.600;23.806;2023-03-01T16:51:44;16.97;;;10.83;;
20002;SDS011;10162;41.600;23.806;2023-03-01T16:54:10;31.27;;;21.43;;
20002;SDS011;10162;41.600;23.806;2023-03-01T16:56:38;22.30;;;15.17;;
20002;SDS011;10162;41.600;23.806;2023-03-01T17:01:53;10.00;;;7.33;;
20002;SDS011;10162;41.600;23.806;2023-03-01T17:04:19;13.27;;;7.97;;
20002;SDS011;10162;41.600;23.806;2023-03-01T17:06:45;16.00;;;10.70;;
20002;SDS011;10162;41.600;23.806;2023-03-01T17:09:15;43.37;;;30.20;;
20002;SDS011;10162;41.600;23.806;2023-03-01T17:11:44;35.03;;;22.90;;
20002;SDS011;10162;41.600;23.806;2023-03-01T17:14:10;28.77;;;21.30;;
20002;SDS011;10162;41.600;23.806;2023-03-01T17:16:37;21.00;;;16.23;;
20002;SDS011;10162;41.600;23.806;2023-03-01T17:21:32;16.07;;;8.53;;
20002;SDS011;10162;41.600;23.806;2023-03-01T17:23:59;22.77;;;17.27;;
20002;SDS011;10162;41.600;23.806;2023-03-01T17:26:28;23.43;;;16.23;;
20002;SDS011;10162;41.600;23.806;2023-03-01T17:28:56;28.13;;;19.53;;
20002;SDS011;10162;41.600;23.806;2023-03-01T17:31:25;45.43;;;31.90;;
20002;SDS011;10162;41.600;23.806;2023-03-01T17:33:51;87.30;;;42.23;;
20002;SDS011;10162;41.600;23.806;2023-03-01T17:42:00;37.57;;;20.87;;
20002;SDS011;10162;41.600;23.806;2023-03-01T17:44:29;20.27;;;11.57;;
20002;SDS011;10162;41.600;23.806;2023-03-01T17:46:57;12.33;;;8.23;;
20002;SDS011;10162;41.600;23.806;2023-03-01T17:53:17;24.03;;;15.83;;
20002;SDS011;10162;41.600;23.806;2023-03-01T17:55:43;16.33;;;10.50;;
20002;SDS011;10162;41.600;23.806;2023-03-01T17:58:11;49.37;;;22.83;;
20002;SDS011;10162;41.600;23.806;2023-03-01T18:00:38;33.93;;;20.40;;
20002;SDS011;10162;41.600;23.806;2023-03-01T18:03:05;37.47;;;20.70;;
20002;SDS011;10162;41.600;23.806;2023-03-01T18:05:33;29.40;;;16.17;;
20002;SDS011;10162;41.600;23.806;2023-03-01T18:08:04;24.33;;;15.27;;
20002;SDS011;10162;41.600;23.806;2023-03-01T18:16:35;31.00;;;19.83;;
20002;SDS011;10162;41.600;23.806;2023-03-01T18:19:10;30.33;;;18.07;;
20002;SDS011;10162;41.600;23.806;2023-03-01T18:21:37;30.40;;;20.30;;
20002;SDS011;10162;41.600;23.806;2023-03-01T18:24:03;80.40;;;42.07;;
20002;SDS011;10162;41.600;23.806;2023-03-01T18:26:29;38.63;;;25.13;;
20002;SDS011;10162;41.600;23.806;2023-03-01T18:32:04;16.53;;;11.40;;
20002;SDS011;10162;41.600;23.806;2023-03-01T18:34:30;16.33;;;11.50;;
20002;SDS011;10162;41.600;23.806;2023-03-01T18:36:56;16.63;;;10.30;;
20002;SDS011;10162;41.600;23.806;2023-03-01T18:42:28;10.07;;;7.27;;
20002;SDS011;10162;41.600;23.806;2023-03-01T18:44:54;15.33;;;9.37;;
20002;SDS011;10162;41.600;23.806;2023-03-01T18:47:22;20.10;;;11.00;;
20002;SDS011;10162;41.600;23.806;2023-03-01T18:53:19;21.47;;;14.10;;
20002;SDS011;10162;41.600;23.806;2023-03-01T18:55:45;29.20;;;14.73;;
20002;SDS011;10162;41.600;23.806;2023-03-01T18:58:11;18.53;;;12.83;;
20002;SDS011;10162;41.600;23.806;2023-03-01T19:00:40;14.27;;;7.93;;
20002;SDS011;10162;41.600;23.806;2023-03-01T19:03:06;10.47;;;6.70;;
20002;SDS011;10162;41.600;23.806;2023-03-01T19:05:32;16.47;;;8.03;;
20002;SDS011;10162;41.600;23.806;2023-03-01T19:07:58;19.20;;;8.60;;
20002;SDS011;10162;41.600;23.806;2023-03-01T19:14:18;45.97;;;25.67;;
20002;SDS011;10162;41.600;23.806;2023-03-01T19:16:43;14.43;;;8.93;;
20002;SDS011;10162;41.600;23.806;2023-03-01T19:21:41;11.57;;;8.40;;
20002;SDS011;10162;41.600;23.806;2023-03-01T19:24:07;12.07;;;9.20;;
20002;SDS011;10162;41.600;23.806;2023-03-01T19:26:34;19.93;;;11.07;;
20002;SDS011;10162;41.600;23.806;2023-03-01T19:29:15;21.43;;;13.20;;
20002;SDS011;10162;41.600;23.806;2023-03-01T19:31:41;21.07;;;12.97;;
20002;SDS011;10162;41.600;23.806;2023-03-01T19:34:06;19.13;;;12.67;;
20002;SDS011;10162;41.600;23.806;2023-03-01T19:36:34;14.93;;;9.07;;
20002;SDS011;10162;41.600;23.806;2023-03-01T19:39:02;14.73;;;8.87;;
20002;SDS011;10162;41.600;23.806;2023-03-01T19:41:30;94.03;;;46.90;;
20002;SDS011;10162;41.600;23.806;2023-03-01T19:43:56;20.40;;;12.03;;
20002;SDS011;10162;41.600;23.806;2023-03-01T19:46:22;16.03;;;10.13;;
20002;SDS011;10162;41.600;23.806;2023-03-01T19:51:35;24.13;;;14.63;;
20002;SDS011;10162;41.600;23.806;2023-03-01T19:54:03;25.93;;;15.40;;
20002;SDS011;10162;41.600;23.806;2023-03-01T19:56:30;27.87;;;16.67;;
20002;SDS011;10162;41.600;23.806;2023-03-01T20:01:45;29.30;;;17.93;;
20002;SDS011;10162;41.600;23.806;2023-03-01T20:04:10;22.83;;;13.87;;
20002;SDS011;10162;41.600;23.806;2023-03-01T20:06:37;15.93;;;10.27;;
20002;SDS011;10162;41.600;23.806;2023-03-01T20:09:05;11.90;;;8.63;;
20002;SDS011;10162;41.600;23.806;2023-03-01T20:11:33;14.00;;;8.33;;
20002;SDS011;10162;41.600;23.806;2023-03-01T20:13:59;12.53;;;8.00;;
20002;SDS011;10162;41.600;23.806;2023-03-01T20:16:26;14.07;;;9.30;;
20002;SDS011;10162;41.600;23.806;2023-03-01T20:21:21;17.97;;;12.13;;
20002;SDS011;10162;41.600;23.806;2023-03-01T20:23:47;19.00;;;12.30;;
20002;SDS011;10162;41.600;23.806;2023-03-01T20:26:14;17.17;;;11.07;;
20002;SDS011;10162;41.600;23.806;2023-03-01T20:31:48;31.53;;;19.53;;
20002;SDS011;10162;41.600;23.806;2023-03-01T20:34:14;42.63;;;23.20;;
20002;SDS011;10162;41.600;23.806;2023-03-01T20:36:40;34.60;;;19.03;;
20002;SDS011;10162;41.600;23.806;2023-03-01T20:42:15;28.50;;;14.87;;
20002;SDS011;10162;41.600;23.806;2023-03-01T20:44:41;18.37;;;12.73;;
20002;SDS011;10162;41.600;23.806;2023-03-01T20:47:09;21.63;;;13.30;;
20002;SDS011;10162;41.600;23.806;2023-03-01T20:52:46;20.07;;;13.83;;
20002;SDS011;10162;41.600;23.806;2023-03-01T20:55:12;25.33;;;14.73;;
20002;SDS011;10162;41.600;23.806;2023-03-01T20:57:38;25.60;;;14.63;;
20002;SDS011;10162;41.600;23.806;2023-03-01T21:03:10;21.67;;;13.10;;
20002;SDS011;10162;41.600;23.806;2023-03-01T21:05:35;20.40;;;12.67;;
20002;SDS011;10162;41.600;23.806;2023-03-01T21:08:02;16.23;;;11.13;;
20002;SDS011;10162;41.600;23.806;2023-03-01T21:10:32;16.87;;;11.03;;
20002;SDS011;10162;41.600;23.806;2023-03-01T21:12:59;19.27;;;12.53;;
20002;SDS011;10162;41.600;23.806;2023-03-01T21:15:25;21.60;;;11.77;;
20002;SDS011;10162;41.600;23.806;2023-03-01T21:17:52;20.37;;;12.20;;
20002;SDS011;10162;41.600;23.806;2023-03-01T21:24:12;24.13;;;12.87;;
20002;SDS011;10162;41.600;23.806;2023-03-01T21:26:39;19.43;;;11.73;;
20002;SDS011;10162;41.600;23.806;2023-03-01T21:31:56;20.97;;;12.53;;
20002;SDS011;10162;41.600;23.806;2023-03-01T21:34:22;38.30;;;18.97;;
20002;SDS011;10162;41.600;23.806;2023-03-01T21:36:48;25.20;;;16.10;;
20002;SDS011;10162;41.600;23.806;2023-03-01T21:42:13;25.97;;;13.93;;
20002;SDS011;10162;41.600;23.806;2023-03-01T21:44:39;22.90;;;12.83;;
20002;SDS011;10162;41.600;23.806;2023-03-01T21:47:06;20.27;;;11.13;;
20002;SDS011;10162;41.600;23.806;2023-03-01T21:49:45;14.27;;;9.33;;
20002;SDS011;10162;41.600;23.806;2023-03-01T21:52:15;17.90;;;9.33;;
20002;SDS011;10162;41.600;23.806;2023-03-01T21:54:41;10.87;;;7.50;;
20002;SDS011;10162;41.600;23.806;2023-03-01T21:57:07;12.67;;;8.27;;
20002;SDS011;10162;41.600;23.806;2023-03-01T21:59:45;14.17;;;8.70;;
20002;SDS011;10162;41.600;23.806;2023-03-01T22:02:13;17.07;;;10.07;;
20002;SDS011;10162;41.600;23.806;2023-03-01T22:04:39;13.57;;;7.33;;
20002;SDS011;10162;41.600;23.806;2023-03-01T22:07:06;11.20;;;7.70;;
20002;SDS011;10162;41.600;23.806;2023-03-01T22:13:26;10.40;;;6.97;;
20002;SDS011;10162;41.600;23.806;2023-03-01T22:15:51;13.60;;;7.93;;
20002;SDS011;10162;41.600;23.806;2023-03-01T22:21:32;11.70;;;7.53;;
20002;SDS011;10162;41.600;23.806;2023-03-01T22:24:02;11.47;;;7.63;;
20002;SDS011;10162;41.600;23.806;2023-03-01T22:26:30;13.37;;;7.70;;
20002;SDS011;10162;41.600;23.806;2023-03-01T22:29:00;14.73;;;7.90;;
20002;SDS011;10162;41.600;23.806;2023-03-01T22:31:27;12.20;;;8.00;;
20002;SDS011;10162;41.600;23.806;2023-03-01T22:33:54;12.17;;;8.47;;
20002;SDS011;10162;41.600;23.806;2023-03-01T22:36:24;13.87;;;9.67;;
20002;SDS011;10162;41.600;23.806;2023-03-01T22:41:48;18.70;;;12.90;;
20002;SDS011;10162;41.600;23.806;2023-03-01T22:44:15;31.30;;;19.13;;
20002;SDS011;10162;41.600;23.806;2023-03-01T22:46:43;19.77;;;12.63;;
20002;SDS011;10162;41.600;23.806;2023-03-01T22:49:15;17.30;;;11.70;;
20002;SDS011;10162;41.600;23.806;2023-03-01T22:52:04;17.13;;;11.00;;
20002;SDS011;10162;41.600;23.806;2023-03-01T22:54:30;39.13;;;21.77;;
20002;SDS011;10162;41.600;23.806;2023-03-01T22:56:57;24.73;;;14.27;;
20002;SDS011;10162;41.600;23.806;2023-03-01T22:59:35;18.97;;;11.30;;
20002;SDS011;10162;41.600;23.806;2023-03-01T23:02:01;19.57;;;11.53;;
20002;SDS011;10162;41.600;23.806;2023-03-01T23:04:27;17.37;;;10.73;;
20002;SDS011;10162;41.600;23.806;2023-03-01T23:06:55;18.57;;;9.73;;
20002;SDS011;10162;41.600;23.806;2023-03-01T23:09:32;15.87;;;8.90;;
20002;SDS011;10162;41.600;23.806;2023-03-01T23:12:01;13.83;;;9.00;;
20002;SDS011;10162;41.600;23.806;2023-03-01T23:14:31;15.27;;;9.03;;
20002;SDS011;10162;41.600;23.806;2023-03-01T23:16:59;12.17;;;8.17;;
20002;SDS011;10162;41.600;23.806;2023-03-01T23:19:33;14.07;;;8.60;;
20002;SDS011;10162;41.600;23.806;2023-03-01T23:22:00;14.93;;;9.73;;
20002;SDS011;10162;41.600;23.806;2023-03-01T23:24:26;18.80;;;10.33;;
20002;SDS011;10162;41.600;23.806;2023-03-01T23:26:59;16.50;;;9.57;;
20002;SDS011;10162;41.600;23.806;2023-03-01T23:32:33;19.10;;;9.97;;
20002;SDS011;10162;41.600;23.806;2023-03-01T23:35:07;19.27;;;10.93;;
20002;SDS011;10162;41.600;23.806;2023-03-01T23:37:35;17.60;;;10.47;;
20002;SDS011;10162;41.600;23.806;2023-03-01T23:42:55;16.70;;;10.80;;
20002;SDS011;10162;41.600;23.806;2023-03-01T23:45:21;16.40;;;10.77;;
20002;SDS011;10162;41.600;23.806;2023-03-01T23:47:49;17.17;;;10.27;;
20002;SDS011;10162;41.600;23.806;2023-03-01T23:52:53;15.83;;;10.17;;
20002;SDS011;10162;41.600;23.806;2023-03-01T23:55:19;14.03;;;9.80;;
20002;SDS011;10162;41.600;23.806;2023-03-01T23:57:47;21.93;;;10.20;;
